sensor_id;sensor_type;location;lat;lon;timestamp;temperature;humidity
75819;DHT22;64453;51.944;9.796;2023-11-19T00:01:08;13.10;56.50
75819;DHT22;64453;51.944;9.796;2023-11-19T00:03:35;13.10;56.40
75819;DHT22;64453;51.944;9.796;2023-11-19T00:06:02;12.90;56.70
75819;DHT22;64453;51.944;9.796;2023-11-19T00:08:30;12.90;56.60
75819;DHT22;64453;51.944;9.796;2023-11-19T00:10:56;12.80;57.40
75819;DHT22;64453;51.944;9.796;2023-11-19T00:13:23;13.00;56.80
75819;DHT22;64453;51.944;9.796;2023-11-19T00:15:53;13.30;56.60
75819;DHT22;64453;51.944;9.796;2023-11-19T00:18:20;13.20;56.70
75819;DHT22;64453;51.944;9.796;2023-11-19T00:20:47;13.20;56.80
75819;DHT22;64453;51.944;9.796;2023-11-19T00:23:14;13.20;56.80
75819;DHT22;64453;51.944;9.796;2023-11-19T00:25:41;13.30;56.80
75819;DHT22;64453;51.944;9.796;2023-11-19T00:28:08;13.40;56.70
75819;DHT22;64453;51.944;9.796;2023-11-19T00:30:35;13.40;56.70
75819;DHT22;64453;51.944;9.796;2023-11-19T00:33:04;13.40;56.70
75819;DHT22;64453;51.944;9.796;2023-11-19T00:35:31;13.40;56.70
75819;DHT22;64453;51.944;9.796;2023-11-19T00:37:58;13.50;56.90
75819;DHT22;64453;51.944;9.796;2023-11-19T00:40:26;13.40;56.90
75819;DHT22;64453;51.944;9.796;2023-11-19T00:42:53;13.40;57.10
75819;DHT22;64453;51.944;9.796;2023-11-19T00:45:20;13.40;57.00
75819;DHT22;64453;51.944;9.796;2023-11-19T00:47:46;13.50;57.10
75819;DHT22;64453;51.944;9.796;2023-11-19T00:50:16;13.00;57.30
75819;DHT22;64453;51.944;9.796;2023-11-19T00:52:43;13.10;58.00
75819;DHT22;64453;51.944;9.796;2023-11-19T00:55:10;13.30;57.50
75819;DHT22;64453;51.944;9.796;2023-11-19T00:57:37;13.40;57.50
75819;DHT22;64453;51.944;9.796;2023-11-19T01:00:05;13.40;57.30
75819;DHT22;64453;51.944;9.796;2023-11-19T01:02:44;13.40;57.60
75819;DHT22;64453;51.944;9.796;2023-11-19T01:05:11;13.50;57.60
75819;DHT22;64453;51.944;9.796;2023-11-19T01:07:42;13.50;57.30
75819;DHT22;64453;51.944;9.796;2023-11-19T01:10:09;13.50;57.50
75819;DHT22;64453;51.944;9.796;2023-11-19T01:12:37;13.60;57.40
75819;DHT22;64453;51.944;9.796;2023-11-19T01:15:05;13.40;57.50
75819;DHT22;64453;51.944;9.796;2023-11-19T01:17:32;13.40;57.50
75819;DHT22;64453;51.944;9.796;2023-11-19T01:19:59;13.50;57.60
75819;DHT22;64453;51.944;9.796;2023-11-19T01:22:26;13.40;57.70
75819;DHT22;64453;51.944;9.796;2023-11-19T01:24:54;13.40;58.10
75819;DHT22;64453;51.944;9.796;2023-11-19T01:27:21;13.20;58.10
75819;DHT22;64453;51.944;9.796;2023-11-19T01:29:48;13.30;58.30
75819;DHT22;64453;51.944;9.796;2023-11-19T01:32:15;13.20;58.50
75819;DHT22;64453;51.944;9.796;2023-11-19T01:34:42;13.20;58.50
75819;DHT22;64453;51.944;9.796;2023-11-19T01:37:09;13.50;58.70
75819;DHT22;64453;51.944;9.796;2023-11-19T01:39:37;13.50;58.30
75819;DHT22;64453;51.944;9.796;2023-11-19T01:42:06;13.60;58.30
75819;DHT22;64453;51.944;9.796;2023-11-19T01:44:33;13.70;58.10
75819;DHT22;64453;51.944;9.796;2023-11-19T01:47:00;13.50;58.10
75819;DHT22;64453;51.944;9.796;2023-11-19T01:49:30;13.60;58.20
75819;DHT22;64453;51.944;9.796;2023-11-19T01:51:58;13.70;58.40
75819;DHT22;64453;51.944;9.796;2023-11-19T01:54:26;13.60;58.20
75819;DHT22;64453;51.944;9.796;2023-11-19T01:56:54;13.40;59.00
75819;DHT22;64453;51.944;9.796;2023-11-19T01:59:23;13.40;58.90
75819;DHT22;64453;51.944;9.796;2023-11-19T02:01:53;13.50;58.80
75819;DHT22;64453;51.944;9.796;2023-11-19T02:04:21;13.60;58.80
75819;DHT22;64453;51.944;9.796;2023-11-19T02:06:48;13.60;58.70
75819;DHT22;64453;51.944;9.796;2023-11-19T02:09:19;13.60;58.90
75819;DHT22;64453;51.944;9.796;2023-11-19T02:11:47;13.60;59.40
75819;DHT22;64453;51.944;9.796;2023-11-19T02:14:17;13.50;59.30
75819;DHT22;64453;51.944;9.796;2023-11-19T02:16:45;13.60;59.10
75819;DHT22;64453;51.944;9.796;2023-11-19T02:19:12;13.70;59.40
75819;DHT22;64453;51.944;9.796;2023-11-19T02:21:39;13.70;59.20
75819;DHT22;64453;51.944;9.796;2023-11-19T02:24:09;13.70;59.20
75819;DHT22;64453;51.944;9.796;2023-11-19T02:26:40;13.60;59.30
75819;DHT22;64453;51.944;9.796;2023-11-19T02:29:13;13.80;59.30
75819;DHT22;64453;51.944;9.796;2023-11-19T02:31:40;13.70;59.30
75819;DHT22;64453;51.944;9.796;2023-11-19T02:34:07;13.70;59.20
75819;DHT22;64453;51.944;9.796;2023-11-19T02:36:34;13.80;59.50
75819;DHT22;64453;51.944;9.796;2023-11-19T02:39:01;13.80;59.60
75819;DHT22;64453;51.944;9.796;2023-11-19T02:41:28;13.80;59.20
75819;DHT22;64453;51.944;9.796;2023-11-19T02:43:55;13.80;59.20
75819;DHT22;64453;51.944;9.796;2023-11-19T02:46:23;13.90;59.40
75819;DHT22;64453;51.944;9.796;2023-11-19T02:48:51;13.90;59.20
75819;DHT22;64453;51.944;9.796;2023-11-19T02:51:18;13.90;59.40
75819;DHT22;64453;51.944;9.796;2023-11-19T02:53:45;13.90;59.60
75819;DHT22;64453;51.944;9.796;2023-11-19T02:56:14;13.80;59.60
75819;DHT22;64453;51.944;9.796;2023-11-19T02:58:46;13.50;60.50
75819;DHT22;64453;51.944;9.796;2023-11-19T03:01:21;13.00;62.30
75819;DHT22;64453;51.944;9.796;2023-11-19T03:03:55;12.50;63.80
75819;DHT22;64453;51.944;9.796;2023-11-19T03:06:22;12.10;65.80
75819;DHT22;64453;51.944;9.796;2023-11-19T03:08:49;12.00;66.70
75819;DHT22;64453;51.944;9.796;2023-11-19T03:11:16;11.90;67.60
75819;DHT22;64453;51.944;9.796;2023-11-19T03:13:43;11.90;67.80
75819;DHT22;64453;51.944;9.796;2023-11-19T03:16:10;11.90;68.10
75819;DHT22;64453;51.944;9.796;2023-11-19T03:18:38;11.90;68.50
75819;DHT22;64453;51.944;9.796;2023-11-19T03:21:06;11.90;69.00
75819;DHT22;64453;51.944;9.796;2023-11-19T03:23:34;11.70;69.60
75819;DHT22;64453;51.944;9.796;2023-11-19T03:26:01;11.80;69.90
75819;DHT22;64453;51.944;9.796;2023-11-19T03:28:31;11.80;69.70
75819;DHT22;64453;51.944;9.796;2023-11-19T03:30:57;11.80;69.70
75819;DHT22;64453;51.944;9.796;2023-11-19T03:33:24;11.90;69.90
75819;DHT22;64453;51.944;9.796;2023-11-19T03:35:54;11.60;70.30
75819;DHT22;64453;51.944;9.796;2023-11-19T03:38:23;11.80;70.40
75819;DHT22;64453;51.944;9.796;2023-11-19T03:40:50;11.80;70.80
75819;DHT22;64453;51.944;9.796;2023-11-19T03:43:17;11.80;71.20
75819;DHT22;64453;51.944;9.796;2023-11-19T03:45:44;11.80;71.20
75819;DHT22;64453;51.944;9.796;2023-11-19T03:48:12;11.80;70.90
75819;DHT22;64453;51.944;9.796;2023-11-19T03:50:41;11.90;70.80
75819;DHT22;64453;51.944;9.796;2023-11-19T03:53:11;12.00;70.80
75819;DHT22;64453;51.944;9.796;2023-11-19T03:55:39;11.90;70.80
75819;DHT22;64453;51.944;9.796;2023-11-19T03:58:05;12.00;70.90
75819;DHT22;64453;51.944;9.796;2023-11-19T04:00:33;11.90;70.90
75819;DHT22;64453;51.944;9.796;2023-11-19T04:03:00;12.00;70.90
75819;DHT22;64453;51.944;9.796;2023-11-19T04:05:27;12.00;71.00
75819;DHT22;64453;51.944;9.796;2023-11-19T04:07:53;12.00;71.00
75819;DHT22;64453;51.944;9.796;2023-11-19T04:10:22;12.10;71.00
75819;DHT22;64453;51.944;9.796;2023-11-19T04:12:49;12.10;70.80
75819;DHT22;64453;51.944;9.796;2023-11-19T04:15:16;12.10;70.70
75819;DHT22;64453;51.944;9.796;2023-11-19T04:17:43;12.10;70.80
75819;DHT22;64453;51.944;9.796;2023-11-19T04:20:11;12.00;71.60
75819;DHT22;64453;51.944;9.796;2023-11-19T04:22:38;12.20;72.00
75819;DHT22;64453;51.944;9.796;2023-11-19T04:25:07;12.20;72.00
75819;DHT22;64453;51.944;9.796;2023-11-19T04:27:35;12.20;72.00
75819;DHT22;64453;51.944;9.796;2023-11-19T04:30:03;12.20;71.90
75819;DHT22;64453;51.944;9.796;2023-11-19T04:32:31;12.10;72.50
75819;DHT22;64453;51.944;9.796;2023-11-19T04:34:58;12.20;72.40
75819;DHT22;64453;51.944;9.796;2023-11-19T04:37:24;12.10;72.50
75819;DHT22;64453;51.944;9.796;2023-11-19T04:39:51;12.10;73.20
75819;DHT22;64453;51.944;9.796;2023-11-19T04:42:18;12.00;73.50
75819;DHT22;64453;51.944;9.796;2023-11-19T04:44:47;12.10;73.30
75819;DHT22;64453;51.944;9.796;2023-11-19T04:47:14;12.20;73.40
75819;DHT22;64453;51.944;9.796;2023-11-19T04:49:41;12.10;73.50
75819;DHT22;64453;51.944;9.796;2023-11-19T04:52:09;12.20;73.80
75819;DHT22;64453;51.944;9.796;2023-11-19T04:54:41;12.20;73.50
75819;DHT22;64453;51.944;9.796;2023-11-19T04:57:08;12.30;73.70
75819;DHT22;64453;51.944;9.796;2023-11-19T04:59:36;12.40;73.90
75819;DHT22;64453;51.944;9.796;2023-11-19T05:02:05;12.30;73.90
75819;DHT22;64453;51.944;9.796;2023-11-19T05:04:32;12.30;74.40
75819;DHT22;64453;51.944;9.796;2023-11-19T05:06:59;12.40;74.20
75819;DHT22;64453;51.944;9.796;2023-11-19T05:09:26;12.30;74.80
75819;DHT22;64453;51.944;9.796;2023-11-19T05:11:53;12.40;75.10
75819;DHT22;64453;51.944;9.796;2023-11-19T05:14:20;12.40;75.40
75819;DHT22;64453;51.944;9.796;2023-11-19T05:16:47;12.40;75.40
75819;DHT22;64453;51.944;9.796;2023-11-19T05:19:16;12.40;75.80
75819;DHT22;64453;51.944;9.796;2023-11-19T05:21:42;12.20;77.00
75819;DHT22;64453;51.944;9.796;2023-11-19T05:24:10;12.00;80.10
75819;DHT22;64453;51.944;9.796;2023-11-19T05:26:38;12.30;79.60
75819;DHT22;64453;51.944;9.796;2023-11-19T05:29:05;12.40;79.10
75819;DHT22;64453;51.944;9.796;2023-11-19T05:31:33;12.50;78.50
75819;DHT22;64453;51.944;9.796;2023-11-19T05:34:00;12.40;78.50
75819;DHT22;64453;51.944;9.796;2023-11-19T05:36:28;12.50;78.40
75819;DHT22;64453;51.944;9.796;2023-11-19T05:38:55;12.40;78.00
75819;DHT22;64453;51.944;9.796;2023-11-19T05:41:22;12.40;78.20
75819;DHT22;64453;51.944;9.796;2023-11-19T05:43:49;12.30;79.10
75819;DHT22;64453;51.944;9.796;2023-11-19T05:46:17;12.30;80.20
75819;DHT22;64453;51.944;9.796;2023-11-19T05:48:44;12.10;81.20
75819;DHT22;64453;51.944;9.796;2023-11-19T05:51:12;12.10;82.40
75819;DHT22;64453;51.944;9.796;2023-11-19T05:53:40;12.30;81.10
75819;DHT22;64453;51.944;9.796;2023-11-19T05:56:08;12.20;81.10
75819;DHT22;64453;51.944;9.796;2023-11-19T05:58:35;12.30;81.50
75819;DHT22;64453;51.944;9.796;2023-11-19T06:01:03;12.10;81.60
75819;DHT22;64453;51.944;9.796;2023-11-19T06:03:33;12.40;81.80
75819;DHT22;64453;51.944;9.796;2023-11-19T06:06:00;12.40;80.50
75819;DHT22;64453;51.944;9.796;2023-11-19T06:08:27;12.50;80.00
75819;DHT22;64453;51.944;9.796;2023-11-19T06:10:57;12.50;80.00
75819;DHT22;64453;51.944;9.796;2023-11-19T06:13:26;12.30;80.30
75819;DHT22;64453;51.944;9.796;2023-11-19T06:15:53;12.20;81.40
75819;DHT22;64453;51.944;9.796;2023-11-19T06:18:20;12.40;81.10
75819;DHT22;64453;51.944;9.796;2023-11-19T06:20:48;12.30;80.50
75819;DHT22;64453;51.944;9.796;2023-11-19T06:23:16;12.50;80.70
75819;DHT22;64453;51.944;9.796;2023-11-19T06:25:43;12.30;81.40
75819;DHT22;64453;51.944;9.796;2023-11-19T06:28:11;12.50;81.10
75819;DHT22;64453;51.944;9.796;2023-11-19T06:30:38;12.30;81.80
75819;DHT22;64453;51.944;9.796;2023-11-19T06:33:06;12.10;82.70
75819;DHT22;64453;51.944;9.796;2023-11-19T06:35:34;12.30;83.20
75819;DHT22;64453;51.944;9.796;2023-11-19T06:38:02;12.50;82.40
75819;DHT22;64453;51.944;9.796;2023-11-19T06:40:29;12.80;81.20
75819;DHT22;64453;51.944;9.796;2023-11-19T06:42:57;12.90;80.10
75819;DHT22;64453;51.944;9.796;2023-11-19T06:45:25;12.50;80.50
75819;DHT22;64453;51.944;9.796;2023-11-19T06:47:52;12.50;81.70
75819;DHT22;64453;51.944;9.796;2023-11-19T06:50:19;12.70;81.20
75819;DHT22;64453;51.944;9.796;2023-11-19T06:52:46;12.80;80.50
75819;DHT22;64453;51.944;9.796;2023-11-19T06:55:13;12.70;80.70
75819;DHT22;64453;51.944;9.796;2023-11-19T06:57:40;12.60;81.10
75819;DHT22;64453;51.944;9.796;2023-11-19T07:00:08;12.80;80.20
75819;DHT22;64453;51.944;9.796;2023-11-19T07:02:38;12.70;80.40
75819;DHT22;64453;51.944;9.796;2023-11-19T07:05:05;12.40;82.10
75819;DHT22;64453;51.944;9.796;2023-11-19T07:07:33;12.50;81.40
75819;DHT22;64453;51.944;9.796;2023-11-19T07:10:01;12.50;81.40
75819;DHT22;64453;51.944;9.796;2023-11-19T07:12:30;12.50;81.80
75819;DHT22;64453;51.944;9.796;2023-11-19T07:14:57;12.50;81.30
75819;DHT22;64453;51.944;9.796;2023-11-19T07:17:24;12.50;81.20
75819;DHT22;64453;51.944;9.796;2023-11-19T07:19:52;12.60;80.30
75819;DHT22;64453;51.944;9.796;2023-11-19T07:22:20;12.50;79.20
75819;DHT22;64453;51.944;9.796;2023-11-19T07:24:46;12.50;79.20
75819;DHT22;64453;51.944;9.796;2023-11-19T07:27:13;12.50;78.20
75819;DHT22;64453;51.944;9.796;2023-11-19T07:29:43;12.50;77.20
75819;DHT22;64453;51.944;9.796;2023-11-19T07:32:10;12.50;76.30
75819;DHT22;64453;51.944;9.796;2023-11-19T07:34:39;12.60;76.30
75819;DHT22;64453;51.944;9.796;2023-11-19T07:37:07;12.70;75.60
75819;DHT22;64453;51.944;9.796;2023-11-19T07:39:35;12.70;75.40
75819;DHT22;64453;51.944;9.796;2023-11-19T07:42:03;12.80;74.90
75819;DHT22;64453;51.944;9.796;2023-11-19T07:44:30;12.80;74.90
75819;DHT22;64453;51.944;9.796;2023-11-19T07:46:58;12.70;73.60
75819;DHT22;64453;51.944;9.796;2023-11-19T07:49:25;12.80;75.20
75819;DHT22;64453;51.944;9.796;2023-11-19T07:51:52;12.90;74.30
75819;DHT22;64453;51.944;9.796;2023-11-19T07:54:20;12.90;74.00
75819;DHT22;64453;51.944;9.796;2023-11-19T07:56:48;13.00;74.40
75819;DHT22;64453;51.944;9.796;2023-11-19T07:59:16;13.00;74.70
75819;DHT22;64453;51.944;9.796;2023-11-19T08:01:44;13.10;74.30
75819;DHT22;64453;51.944;9.796;2023-11-19T08:04:11;13.20;73.30
75819;DHT22;64453;51.944;9.796;2023-11-19T08:06:38;13.20;73.50
75819;DHT22;64453;51.944;9.796;2023-11-19T08:09:05;13.30;73.00
75819;DHT22;64453;51.944;9.796;2023-11-19T08:11:33;13.30;71.70
75819;DHT22;64453;51.944;9.796;2023-11-19T08:14:00;13.30;72.80
75819;DHT22;64453;51.944;9.796;2023-11-19T08:16:28;13.20;73.20
75819;DHT22;64453;51.944;9.796;2023-11-19T08:18:55;13.40;72.70
75819;DHT22;64453;51.944;9.796;2023-11-19T08:21:24;13.20;71.70
75819;DHT22;64453;51.944;9.796;2023-11-19T08:23:52;13.20;72.10
75819;DHT22;64453;51.944;9.796;2023-11-19T08:26:19;13.20;71.60
75819;DHT22;64453;51.944;9.796;2023-11-19T08:28:47;13.20;72.10
75819;DHT22;64453;51.944;9.796;2023-11-19T08:31:14;13.30;72.40
75819;DHT22;64453;51.944;9.796;2023-11-19T08:33:42;13.10;70.60
75819;DHT22;64453;51.944;9.796;2023-11-19T08:36:15;13.00;71.70
75819;DHT22;64453;51.944;9.796;2023-11-19T08:38:43;13.10;71.70
75819;DHT22;64453;51.944;9.796;2023-11-19T08:41:10;13.00;71.60
75819;DHT22;64453;51.944;9.796;2023-11-19T08:43:37;13.30;71.00
75819;DHT22;64453;51.944;9.796;2023-11-19T08:46:09;13.10;69.80
75819;DHT22;64453;51.944;9.796;2023-11-19T08:48:36;13.50;70.50
75819;DHT22;64453;51.944;9.796;2023-11-19T08:51:04;13.50;68.80
75819;DHT22;64453;51.944;9.796;2023-11-19T08:53:31;13.00;69.60
75819;DHT22;64453;51.944;9.796;2023-11-19T08:55:58;13.10;70.20
75819;DHT22;64453;51.944;9.796;2023-11-19T08:58:26;12.90;69.90
75819;DHT22;64453;51.944;9.796;2023-11-19T09:00:53;13.00;70.70
75819;DHT22;64453;51.944;9.796;2023-11-19T09:03:21;13.00;70.10
75819;DHT22;64453;51.944;9.796;2023-11-19T09:05:48;12.90;70.70
75819;DHT22;64453;51.944;9.796;2023-11-19T09:08:15;13.20;70.00
75819;DHT22;64453;51.944;9.796;2023-11-19T09:10:42;13.30;69.30
75819;DHT22;64453;51.944;9.796;2023-11-19T09:13:09;13.30;69.60
75819;DHT22;64453;51.944;9.796;2023-11-19T09:15:36;13.20;69.80
75819;DHT22;64453;51.944;9.796;2023-11-19T09:18:03;13.10;70.50
75819;DHT22;64453;51.944;9.796;2023-11-19T09:20:32;13.50;71.00
75819;DHT22;64453;51.944;9.796;2023-11-19T09:23:04;13.30;70.70
75819;DHT22;64453;51.944;9.796;2023-11-19T09:25:31;13.50;69.90
75819;DHT22;64453;51.944;9.796;2023-11-19T09:27:58;13.50;70.30
75819;DHT22;64453;51.944;9.796;2023-11-19T09:30:24;13.50;71.60
75819;DHT22;64453;51.944;9.796;2023-11-19T09:32:51;13.50;70.70
75819;DHT22;64453;51.944;9.796;2023-11-19T09:35:18;13.60;72.60
75819;DHT22;64453;51.944;9.796;2023-11-19T09:37:47;13.60;72.40
75819;DHT22;64453;51.944;9.796;2023-11-19T09:40:13;13.60;72.30
75819;DHT22;64453;51.944;9.796;2023-11-19T09:42:43;13.90;72.00
75819;DHT22;64453;51.944;9.796;2023-11-19T09:45:14;13.80;69.00
75819;DHT22;64453;51.944;9.796;2023-11-19T09:47:43;14.00;71.40
75819;DHT22;64453;51.944;9.796;2023-11-19T09:50:15;14.00;69.40
75819;DHT22;64453;51.944;9.796;2023-11-19T09:52:44;14.00;69.60
75819;DHT22;64453;51.944;9.796;2023-11-19T09:55:13;14.10;69.20
75819;DHT22;64453;51.944;9.796;2023-11-19T09:57:41;14.20;66.70
75819;DHT22;64453;51.944;9.796;2023-11-19T10:00:10;14.20;66.40
75819;DHT22;64453;51.944;9.796;2023-11-19T10:02:39;14.00;66.60
75819;DHT22;64453;51.944;9.796;2023-11-19T10:05:07;14.00;66.70
75819;DHT22;64453;51.944;9.796;2023-11-19T10:07:36;14.20;65.80
75819;DHT22;64453;51.944;9.796;2023-11-19T10:10:04;13.70;65.50
75819;DHT22;64453;51.944;9.796;2023-11-19T10:12:34;13.90;66.70
75819;DHT22;64453;51.944;9.796;2023-11-19T10:15:01;14.30;67.30
75819;DHT22;64453;51.944;9.796;2023-11-19T10:17:29;14.40;68.90
75819;DHT22;64453;51.944;9.796;2023-11-19T10:19:59;14.20;67.10
75819;DHT22;64453;51.944;9.796;2023-11-19T10:22:28;14.20;69.60
75819;DHT22;64453;51.944;9.796;2023-11-19T10:24:55;14.20;67.10
75819;DHT22;64453;51.944;9.796;2023-11-19T10:27:24;14.00;67.30
75819;DHT22;64453;51.944;9.796;2023-11-19T10:29:53;13.80;69.30
75819;DHT22;64453;51.944;9.796;2023-11-19T10:32:20;14.10;68.20
75819;DHT22;64453;51.944;9.796;2023-11-19T10:34:46;13.80;68.20
75819;DHT22;64453;51.944;9.796;2023-11-19T10:37:27;14.10;68.00
75819;DHT22;64453;51.944;9.796;2023-11-19T10:39:56;14.30;67.80
75819;DHT22;64453;51.944;9.796;2023-11-19T10:42:23;14.60;67.90
75819;DHT22;64453;51.944;9.796;2023-11-19T10:44:50;14.80;66.40
75819;DHT22;64453;51.944;9.796;2023-11-19T10:47:19;14.70;66.20
75819;DHT22;64453;51.944;9.796;2023-11-19T10:49:46;14.60;66.30
75819;DHT22;64453;51.944;9.796;2023-11-19T10:52:17;14.50;67.60
75819;DHT22;64453;51.944;9.796;2023-11-19T10:54:50;14.50;65.70
75819;DHT22;64453;51.944;9.796;2023-11-19T10:57:20;14.70;65.70
75819;DHT22;64453;51.944;9.796;2023-11-19T10:59:49;14.80;66.20
75819;DHT22;64453;51.944;9.796;2023-11-19T11:02:24;14.90;65.60
75819;DHT22;64453;51.944;9.796;2023-11-19T11:04:51;14.70;65.10
75819;DHT22;64453;51.944;9.796;2023-11-19T11:07:21;14.90;65.90
75819;DHT22;64453;51.944;9.796;2023-11-19T11:09:51;14.80;65.10
75819;DHT22;64453;51.944;9.796;2023-11-19T11:12:22;14.50;64.30
75819;DHT22;64453;51.944;9.796;2023-11-19T11:14:51;14.60;64.80
75819;DHT22;64453;51.944;9.796;2023-11-19T11:17:24;14.80;65.10
75819;DHT22;64453;51.944;9.796;2023-11-19T11:19:55;14.90;64.70
75819;DHT22;64453;51.944;9.796;2023-11-19T11:22:23;14.90;63.30
75819;DHT22;64453;51.944;9.796;2023-11-19T11:25:15;14.40;63.00
75819;DHT22;64453;51.944;9.796;2023-11-19T11:28:02;14.40;62.70
75819;DHT22;64453;51.944;9.796;2023-11-19T11:30:43;14.10;63.20
75819;DHT22;64453;51.944;9.796;2023-11-19T11:33:31;14.20;64.10
75819;DHT22;64453;51.944;9.796;2023-11-19T11:36:11;14.60;64.40
75819;DHT22;64453;51.944;9.796;2023-11-19T11:38:41;14.70;62.60
75819;DHT22;64453;51.944;9.796;2023-11-19T11:41:21;14.40;63.40
75819;DHT22;64453;51.944;9.796;2023-11-19T11:43:51;14.30;62.90
75819;DHT22;64453;51.944;9.796;2023-11-19T11:46:55;14.30;64.00
75819;DHT22;64453;51.944;9.796;2023-11-19T11:49:28;14.40;64.10
75819;DHT22;64453;51.944;9.796;2023-11-19T11:52:01;14.80;63.80
75819;DHT22;64453;51.944;9.796;2023-11-19T11:54:30;14.90;62.20
75819;DHT22;64453;51.944;9.796;2023-11-19T11:57:07;14.70;62.30
75819;DHT22;64453;51.944;9.796;2023-11-19T11:59:44;14.70;63.20
75819;DHT22;64453;51.944;9.796;2023-11-19T12:02:14;15.00;63.20
75819;DHT22;64453;51.944;9.796;2023-11-19T12:04:46;14.80;62.10
75819;DHT22;64453;51.944;9.796;2023-11-19T12:07:18;14.80;61.70
75819;DHT22;64453;51.944;9.796;2023-11-19T12:09:52;14.80;62.30
75819;DHT22;64453;51.944;9.796;2023-11-19T12:12:22;14.90;61.90
75819;DHT22;64453;51.944;9.796;2023-11-19T12:15:01;14.90;62.00
75819;DHT22;64453;51.944;9.796;2023-11-19T12:17:46;14.40;62.50
75819;DHT22;64453;51.944;9.796;2023-11-19T12:20:18;14.80;62.90
75819;DHT22;64453;51.944;9.796;2023-11-19T12:22:46;14.70;61.90
75819;DHT22;64453;51.944;9.796;2023-11-19T12:25:16;14.90;62.80
75819;DHT22;64453;51.944;9.796;2023-11-19T12:27:44;15.00;62.10
75819;DHT22;64453;51.944;9.796;2023-11-19T12:30:12;14.80;61.10
75819;DHT22;64453;51.944;9.796;2023-11-19T12:32:40;14.70;62.40
75819;DHT22;64453;51.944;9.796;2023-11-19T12:35:08;14.40;63.40
75819;DHT22;64453;51.944;9.796;2023-11-19T12:37:43;14.60;62.90
75819;DHT22;64453;51.944;9.796;2023-11-19T12:40:18;14.50;62.70
75819;DHT22;64453;51.944;9.796;2023-11-19T12:42:45;14.30;62.50
75819;DHT22;64453;51.944;9.796;2023-11-19T12:45:13;14.70;63.30
75819;DHT22;64453;51.944;9.796;2023-11-19T12:47:41;14.80;62.90
75819;DHT22;64453;51.944;9.796;2023-11-19T12:50:09;15.10;61.00
75819;DHT22;64453;51.944;9.796;2023-11-19T12:52:37;15.30;61.70
75819;DHT22;64453;51.944;9.796;2023-11-19T12:55:24;15.20;60.50
75819;DHT22;64453;51.944;9.796;2023-11-19T12:57:51;15.40;60.50
75819;DHT22;64453;51.944;9.796;2023-11-19T13:00:21;15.40;60.30
75819;DHT22;64453;51.944;9.796;2023-11-19T13:02:50;15.50;60.80
75819;DHT22;64453;51.944;9.796;2023-11-19T13:05:24;15.50;59.80
75819;DHT22;64453;51.944;9.796;2023-11-19T13:07:59;15.10;61.50
75819;DHT22;64453;51.944;9.796;2023-11-19T13:10:28;14.90;63.40
75819;DHT22;64453;51.944;9.796;2023-11-19T13:13:03;14.80;64.50
75819;DHT22;64453;51.944;9.796;2023-11-19T13:15:31;14.70;64.90
75819;DHT22;64453;51.944;9.796;2023-11-19T13:17:58;15.10;64.00
75819;DHT22;64453;51.944;9.796;2023-11-19T13:20:25;15.40;63.90
75819;DHT22;64453;51.944;9.796;2023-11-19T13:22:56;15.40;62.70
75819;DHT22;64453;51.944;9.796;2023-11-19T13:25:24;15.60;62.80
75819;DHT22;64453;51.944;9.796;2023-11-19T13:27:52;15.60;62.00
75819;DHT22;64453;51.944;9.796;2023-11-19T13:30:20;15.10;63.30
75819;DHT22;64453;51.944;9.796;2023-11-19T13:32:48;15.10;63.60
75819;DHT22;64453;51.944;9.796;2023-11-19T13:35:15;15.50;63.20
75819;DHT22;64453;51.944;9.796;2023-11-19T13:37:42;15.50;62.60
75819;DHT22;64453;51.944;9.796;2023-11-19T13:40:10;15.70;62.40
75819;DHT22;64453;51.944;9.796;2023-11-19T13:42:39;15.90;62.40
75819;DHT22;64453;51.944;9.796;2023-11-19T13:45:09;15.80;61.20
75819;DHT22;64453;51.944;9.796;2023-11-19T13:47:40;15.30;61.10
75819;DHT22;64453;51.944;9.796;2023-11-19T13:50:09;15.10;61.70
75819;DHT22;64453;51.944;9.796;2023-11-19T13:52:36;15.00;62.20
75819;DHT22;64453;51.944;9.796;2023-11-19T13:55:06;15.10;63.00
75819;DHT22;64453;51.944;9.796;2023-11-19T13:57:34;15.30;62.00
75819;DHT22;64453;51.944;9.796;2023-11-19T14:00:01;15.60;61.90
75819;DHT22;64453;51.944;9.796;2023-11-19T14:02:32;15.50;60.80
75819;DHT22;64453;51.944;9.796;2023-11-19T14:04:59;15.60;61.40
75819;DHT22;64453;51.944;9.796;2023-11-19T14:07:26;15.60;62.10
75819;DHT22;64453;51.944;9.796;2023-11-19T14:09:54;14.70;64.20
75819;DHT22;64453;51.944;9.796;2023-11-19T14:12:21;14.90;66.10
75819;DHT22;64453;51.944;9.796;2023-11-19T14:14:48;14.90;65.60
75819;DHT22;64453;51.944;9.796;2023-11-19T14:17:15;15.10;66.40
75819;DHT22;64453;51.944;9.796;2023-11-19T14:19:43;14.70;65.90
75819;DHT22;64453;51.944;9.796;2023-11-19T14:22:11;14.60;66.40
75819;DHT22;64453;51.944;9.796;2023-11-19T14:24:38;14.50;67.10
75819;DHT22;64453;51.944;9.796;2023-11-19T14:27:06;14.70;66.90
75819;DHT22;64453;51.944;9.796;2023-11-19T14:29:33;14.70;66.60
75819;DHT22;64453;51.944;9.796;2023-11-19T14:32:01;14.70;65.70
75819;DHT22;64453;51.944;9.796;2023-11-19T14:34:28;14.50;66.60
75819;DHT22;64453;51.944;9.796;2023-11-19T14:36:57;14.90;67.20
75819;DHT22;64453;51.944;9.796;2023-11-19T14:39:25;14.50;65.30
75819;DHT22;64453;51.944;9.796;2023-11-19T14:41:53;14.70;65.50
75819;DHT22;64453;51.944;9.796;2023-11-19T14:44:23;14.70;64.60
75819;DHT22;64453;51.944;9.796;2023-11-19T14:46:50;14.70;64.60
75819;DHT22;64453;51.944;9.796;2023-11-19T14:49:17;14.60;64.10
75819;DHT22;64453;51.944;9.796;2023-11-19T14:51:44;15.00;64.50
75819;DHT22;64453;51.944;9.796;2023-11-19T14:54:12;15.10;63.60
75819;DHT22;64453;51.944;9.796;2023-11-19T14:56:41;15.20;63.50
75819;DHT22;64453;51.944;9.796;2023-11-19T14:59:09;15.00;62.40
75819;DHT22;64453;51.944;9.796;2023-11-19T15:01:36;15.10;63.30
75819;DHT22;64453;51.944;9.796;2023-11-19T15:04:03;15.20;63.00
75819;DHT22;64453;51.944;9.796;2023-11-19T15:06:30;15.40;62.80
75819;DHT22;64453;51.944;9.796;2023-11-19T15:08:59;15.50;62.40
75819;DHT22;64453;51.944;9.796;2023-11-19T15:11:27;15.50;62.30
75819;DHT22;64453;51.944;9.796;2023-11-19T15:13:54;15.50;62.40
75819;DHT22;64453;51.944;9.796;2023-11-19T15:16:21;15.20;62.70
75819;DHT22;64453;51.944;9.796;2023-11-19T15:18:56;15.30;62.90
75819;DHT22;64453;51.944;9.796;2023-11-19T15:21:25;15.40;62.30
75819;DHT22;64453;51.944;9.796;2023-11-19T15:23:53;15.20;61.30
75819;DHT22;64453;51.944;9.796;2023-11-19T15:26:20;15.20;62.10
75819;DHT22;64453;51.944;9.796;2023-11-19T15:28:49;15.20;62.10
75819;DHT22;64453;51.944;9.796;2023-11-19T15:31:16;15.30;61.70
75819;DHT22;64453;51.944;9.796;2023-11-19T15:33:43;15.40;61.40
75819;DHT22;64453;51.944;9.796;2023-11-19T15:36:10;14.90;60.70
75819;DHT22;64453;51.944;9.796;2023-11-19T15:38:37;14.70;62.60